Golden Empress — VRHM9 — position and weather

sailwx.info

Track history (hours):
 
Tides and Currents Weather Stations Pressure Air Temp Water Temp Dewpoint Dewpoint Depression Visibility Wind Speed Wind Dir Waves Ship Positions

Golden Empress

Last reported at 2018-Jan-08 14:44 UTC. Time now 2018-Jan-21 17:57 UTC.
Position N 41°02' E 001°28'.
Warning: this ship's position is 13 days out of date.

Length 229 m; draft 13.3 m.

Type: Ship. MMSI: 477962300.

Date/timePositionNaut miles runAvg speedWind from/ knotsBaromVisibWave heightAir tempDewpointWater temp
2018-Jan-08 14:44N 41°02' E 001°28'311.5
2018-Jan-08 14:30N 41°01' E 001°31'611.5
2018-Jan-08 14:00N 40°59' E 001°38'611.7
2018-Jan-08 13:30N 40°57' E 001°46'612.0
2018-Jan-08 13:00N 40°56' E 001°53'31911.7
2018-Jan-07 09:49N 38°44' E 008°11'411.1
2018-Jan-07 09:30N 38°42' E 008°15'611.1
2018-Jan-07 09:00N 38°39' E 008°21'611.1
2018-Jan-07 08:26N 38°35' E 008°27'511.2
2018-Jan-07 07:59N 38°33' E 008°33'611.6
2018-Jan-07 07:25N 38°30' E 008°40'512.5
2018-Jan-07 07:00N 38°27' E 008°46'612.5
2018-Jan-07 06:30N 38°24' E 008°53'612.4
2018-Jan-07 06:00N 38°21' E 009°00'612.1
2018-Jan-07 05:30N 38°18' E 009°07'612.2
2018-Jan-07 05:00N 38°15' E 009°14'612.0
2018-Jan-07 04:30N 38°13' E 009°20'611.8
2018-Jan-07 04:00N 38°10' E 009°27'611.5
2018-Jan-07 03:29N 38°07' E 009°34'611.3
2018-Jan-07 03:00N 38°04' E 009°40'611.4
2018-Jan-07 02:31N 38°02' E 009°46'611.4
2018-Jan-07 02:00N 37°59' E 009°52'6111.7
2018-Jan-06 20:48N 37°36' E 011°04'310.6
2018-Jan-06 20:29N 37°34' E 011°07'1511.6
2018-Jan-06 19:13N 37°29' E 011°25'311.7
2018-Jan-06 18:58N 37°28' E 011°28'511.6
2018-Jan-06 18:30N 37°26' E 011°34'611.8
2018-Jan-06 18:00N 37°24' E 011°41'1111.5
2018-Jan-06 17:01N 37°19' E 011°54'011.5
2018-Jan-06 17:00N 37°19' E 011°55'1211.5
2018-Jan-06 16:00N 37°15' E 012°08'711.2
2018-Jan-06 15:24N 37°13' E 012°16'911.5
2018-Jan-06 14:38N 37°09' E 012°26'212.1
2018-Jan-06 14:28N 37°08' E 012°28'612.3
2018-Jan-06 14:00N 37°06' E 012°35'612.1
2018-Jan-06 13:30N 37°04' E 012°42'612.2
2018-Jan-06 13:00N 37°02' E 012°49'6212.0
2018-Jan-06 07:49N 36°39' E 014°02'411.4
2018-Jan-06 07:26N 36°38' E 014°06'511.6
2018-Jan-06 07:00N 36°36' E 014°13'611.8
2018-Jan-06 06:30N 36°34' E 014°19'611.6
2018-Jan-06 06:00N 36°32' E 014°26'712.1
2018-Jan-06 05:27N 36°29' E 014°34'511.8
2018-Jan-06 05:01N 36°28' E 014°40'611.9
2018-Jan-06 04:31N 36°28' E 014°47'611.6
2018-Jan-06 04:00N 36°28' E 014°55'611.3
2018-Jan-06 03:30N 36°28' E 015°02'611.9
2018-Jan-06 03:00N 36°28' E 015°09'510.9
2018-Jan-06 02:30N 36°27' E 015°16'41511.0
2018-Jan-04 12:46N 37°04' E 023°52'412.4
2018-Jan-04 12:27N 37°07' E 023°55'612.5
2018-Jan-04 12:00N 37°11' E 024°00'812.9
2018-Jan-04 11:24N 37°17' E 024°07'513.0
2018-Jan-04 11:00N 37°21' E 024°11'613.0
2018-Jan-04 10:30N 37°26' E 024°16'713.0
2018-Jan-04 10:00N 37°31' E 024°21'713.2
2018-Jan-04 09:30N 37°36' E 024°26'612.5
2018-Jan-04 09:00N 37°41' E 024°31'612.8
2018-Jan-04 08:31N 37°47' E 024°33'713.2
2018-Jan-04 08:00N 37°54' E 024°35'613.0
2018-Jan-04 07:31N 37°60' E 024°38'1612.5
2018-Jan-04 06:15N 38°14' E 024°48'312.1
2018-Jan-04 05:59N 38°16' E 024°50'350 7.9
2018-Jan-02 09:50N 42°47' E 029°43'611.4
2018-Jan-02 09:18N 42°53' E 029°45'1111.2
2018-Jan-02 08:18N 43°04' E 029°49'1111.0
2018-Jan-02 07:18N 43°14' E 029°54'611.8
2018-Jan-02 06:50N 43°19' E 029°56'513.5
2018-Jan-02 06:29N 43°24' E 029°57'713.7
2018-Jan-02 06:00N 43°30' E 029°60'3112.2
2018-Jan-02 03:27N 43°60' E 030°13'611.5
2018-Jan-02 02:55N 44°06' E 030°15'511.6
2018-Jan-02 02:29N 44°11' E 030°17'1411.6
2018-Jan-02 01:17N 44°24' E 030°22'5911.8
2018-Jan-01 20:18N 45°21' E 030°44'411.9
2018-Jan-01 20:00N 45°24' E 030°46'5911.7
2018-Jan-01 14:59N 46°21' E 031°08'3 0.1
2017-Dec-31 07:51N 46°23' E 031°09'2 5.5
2017-Dec-31 07:30N 46°21' E 031°08'0 0.2
2017-Dec-31 05:40N 46°21' E 031°07'0 0.0
2017-Dec-31 05:16N 46°21' E 031°07'0 0.1
2017-Dec-31 04:55N 46°21' E 031°07'0 0.0
2017-Dec-31 04:06N 46°21' E 031°07'0 0.0
2017-Dec-31 03:58N 46°21' E 031°07'0 0.0
2017-Dec-31 03:30N 46°21' E 031°07'0 0.0
2017-Dec-31 02:57N 46°21' E 031°07'0 0.0
2017-Dec-31 01:54N 46°21' E 031°07'0 0.0
2017-Dec-31 00:56N 46°21' E 031°07'0 0.0
2017-Dec-30 23:59N 46°21' E 031°07'0 0.0
2017-Dec-30 22:58N 46°21' E 031°07'0 0.0
2017-Dec-30 21:45N 46°21' E 031°07'0 0.0
2017-Dec-30 21:28N 46°21' E 031°07'0 0.0
2017-Dec-30 20:59N 46°21' E 031°07'0 0.0
2017-Dec-30 19:12N 46°21' E 031°07'0 0.0
2017-Dec-30 18:57N 46°21' E 031°07'0 0.0
2017-Dec-30 13:56N 46°21' E 031°08'0 0.0
2017-Dec-30 10:59N 46°21' E 031°08'0 0.0
2017-Dec-30 10:00N 46°21' E 031°08'0 0.0
2017-Dec-30 08:40N 46°21' E 031°08'0 0.0
2017-Dec-30 07:59N 46°21' E 031°08'0 0.1
2017-Dec-30 06:57N 46°21' E 031°08'0 0.0
2017-Dec-30 06:30N 46°21' E 031°08'0 0.1
2017-Dec-30 05:40N 46°21' E 031°08'0 0.0
2017-Dec-30 04:37N 46°21' E 031°08'0 0.1
2017-Dec-30 04:31N 46°21' E 031°08'0 0.1
2017-Dec-30 03:54N 46°21' E 031°08'0 0.1
2017-Dec-30 03:21N 46°21' E 031°07'0 0.0
2017-Dec-30 03:00N 46°21' E 031°07'0 0.0
2017-Dec-30 01:59N 46°21' E 031°07'0 0.0
2017-Dec-30 01:30N 46°21' E 031°07'0 0.1
2017-Dec-30 01:00N 46°21' E 031°07'0 0.0
2017-Dec-29 23:56N 46°21' E 031°07'0 0.0
2017-Dec-29 22:59N 46°21' E 031°07'0 0.0
2017-Dec-29 19:57N 46°21' E 031°07'0 0.0
2017-Dec-29 18:41N 46°21' E 031°07'0 0.0
2017-Dec-29 17:59N 46°21' E 031°07'0 0.0
2017-Dec-29 17:13N 46°21' E 031°07'0 0.0
2017-Dec-29 16:57N 46°21' E 031°07'0 0.0
2017-Dec-29 15:51N 46°21' E 031°07'0 0.0
2017-Dec-29 15:28N 46°21' E 031°07'0 0.0
2017-Dec-29 14:56N 46°21' E 031°07'  
Track history (hours):
 
Tides and Currents Weather Stations Pressure Air Temp Water Temp Dewpoint Dewpoint Depression Visibility Wind Speed Wind Dir Waves Ship Positions

Golden Empress

Last reported at 2018-Jan-08 14:44 UTC. Time now 2018-Jan-21 17:57 UTC.
Position N 41°02' E 001°28'.
Warning: this ship's position is 13 days out of date.

Length 229 m; draft 13.3 m.

Type: Ship. MMSI: 477962300.

Date/timePositionNaut miles runAvg speedWind from/ knotsBaromVisibWave heightAir tempDewpointWater temp
2018-Jan-08 14:44N 41°02' E 001°28'311.5
2018-Jan-08 14:30N 41°01' E 001°31'611.5
2018-Jan-08 14:00N 40°59' E 001°38'611.7
2018-Jan-08 13:30N 40°57' E 001°46'612.0
2018-Jan-08 13:00N 40°56' E 001°53'31911.7
2018-Jan-07 09:49N 38°44' E 008°11'411.1
2018-Jan-07 09:30N 38°42' E 008°15'611.1
2018-Jan-07 09:00N 38°39' E 008°21'611.1
2018-Jan-07 08:26N 38°35' E 008°27'511.2
2018-Jan-07 07:59N 38°33' E 008°33'611.6
2018-Jan-07 07:25N 38°30' E 008°40'512.5
2018-Jan-07 07:00N 38°27' E 008°46'612.5
2018-Jan-07 06:30N 38°24' E 008°53'612.4
2018-Jan-07 06:00N 38°21' E 009°00'612.1
2018-Jan-07 05:30N 38°18' E 009°07'612.2
2018-Jan-07 05:00N 38°15' E 009°14'612.0
2018-Jan-07 04:30N 38°13' E 009°20'611.8
2018-Jan-07 04:00N 38°10' E 009°27'611.5
2018-Jan-07 03:29N 38°07' E 009°34'611.3
2018-Jan-07 03:00N 38°04' E 009°40'611.4
2018-Jan-07 02:31N 38°02' E 009°46'611.4
2018-Jan-07 02:00N 37°59' E 009°52'6111.7
2018-Jan-06 20:48N 37°36' E 011°04'310.6
2018-Jan-06 20:29N 37°34' E 011°07'1511.6
2018-Jan-06 19:13N 37°29' E 011°25'311.7
2018-Jan-06 18:58N 37°28' E 011°28'511.6
2018-Jan-06 18:30N 37°26' E 011°34'611.8
2018-Jan-06 18:00N 37°24' E 011°41'1111.5
2018-Jan-06 17:01N 37°19' E 011°54'011.5
2018-Jan-06 17:00N 37°19' E 011°55'1211.5
2018-Jan-06 16:00N 37°15' E 012°08'711.2
2018-Jan-06 15:24N 37°13' E 012°16'911.5
2018-Jan-06 14:38N 37°09' E 012°26'212.1
2018-Jan-06 14:28N 37°08' E 012°28'612.3
2018-Jan-06 14:00N 37°06' E 012°35'612.1
2018-Jan-06 13:30N 37°04' E 012°42'612.2
2018-Jan-06 13:00N 37°02' E 012°49'6212.0
2018-Jan-06 07:49N 36°39' E 014°02'411.4
2018-Jan-06 07:26N 36°38' E 014°06'511.6
2018-Jan-06 07:00N 36°36' E 014°13'611.8
2018-Jan-06 06:30N 36°34' E 014°19'611.6
2018-Jan-06 06:00N 36°32' E 014°26'712.1
2018-Jan-06 05:27N 36°29' E 014°34'511.8
2018-Jan-06 05:01N 36°28' E 014°40'611.9
2018-Jan-06 04:31N 36°28' E 014°47'611.6
2018-Jan-06 04:00N 36°28' E 014°55'611.3
2018-Jan-06 03:30N 36°28' E 015°02'611.9
2018-Jan-06 03:00N 36°28' E 015°09'510.9
2018-Jan-06 02:30N 36°27' E 015°16'41511.0
2018-Jan-04 12:46N 37°04' E 023°52'412.4
2018-Jan-04 12:27N 37°07' E 023°55'612.5
2018-Jan-04 12:00N 37°11' E 024°00'812.9
2018-Jan-04 11:24N 37°17' E 024°07'513.0
2018-Jan-04 11:00N 37°21' E 024°11'613.0
2018-Jan-04 10:30N 37°26' E 024°16'713.0
2018-Jan-04 10:00N 37°31' E 024°21'713.2
2018-Jan-04 09:30N 37°36' E 024°26'612.5
2018-Jan-04 09:00N 37°41' E 024°31'612.8
2018-Jan-04 08:31N 37°47' E 024°33'713.2
2018-Jan-04 08:00N 37°54' E 024°35'613.0
2018-Jan-04 07:31N 37°60' E 024°38'1612.5
2018-Jan-04 06:15N 38°14' E 024°48'312.1
2018-Jan-04 05:59N 38°16' E 024°50'350 7.9
2018-Jan-02 09:50N 42°47' E 029°43'611.4
2018-Jan-02 09:18N 42°53' E 029°45'1111.2
2018-Jan-02 08:18N 43°04' E 029°49'1111.0
2018-Jan-02 07:18N 43°14' E 029°54'611.8
2018-Jan-02 06:50N 43°19' E 029°56'513.5
2018-Jan-02 06:29N 43°24' E 029°57'713.7
2018-Jan-02 06:00N 43°30' E 029°60'3112.2
2018-Jan-02 03:27N 43°60' E 030°13'611.5
2018-Jan-02 02:55N 44°06' E 030°15'511.6
2018-Jan-02 02:29N 44°11' E 030°17'1411.6
2018-Jan-02 01:17N 44°24' E 030°22'5911.8
2018-Jan-01 20:18N 45°21' E 030°44'411.9
2018-Jan-01 20:00N 45°24' E 030°46'5911.7
2018-Jan-01 14:59N 46°21' E 031°08'3 0.1
2017-Dec-31 07:51N 46°23' E 031°09'2 5.5
2017-Dec-31 07:30N 46°21' E 031°08'0 0.2
2017-Dec-31 05:40N 46°21' E 031°07'0 0.0
2017-Dec-31 05:16N 46°21' E 031°07'0 0.1
2017-Dec-31 04:55N 46°21' E 031°07'0 0.0
2017-Dec-31 04:06N 46°21' E 031°07'0 0.0
2017-Dec-31 03:58N 46°21' E 031°07'0 0.0
2017-Dec-31 03:30N 46°21' E 031°07'0 0.0
2017-Dec-31 02:57N 46°21' E 031°07'0 0.0
2017-Dec-31 01:54N 46°21' E 031°07'0 0.0
2017-Dec-31 00:56N 46°21' E 031°07'0 0.0
2017-Dec-30 23:59N 46°21' E 031°07'0 0.0
2017-Dec-30 22:58N 46°21' E 031°07'0 0.0
2017-Dec-30 21:45N 46°21' E 031°07'0 0.0
2017-Dec-30 21:28N 46°21' E 031°07'0 0.0
2017-Dec-30 20:59N 46°21' E 031°07'0 0.0
2017-Dec-30 19:12N 46°21' E 031°07'0 0.0
2017-Dec-30 18:57N 46°21' E 031°07'0 0.0
2017-Dec-30 13:56N 46°21' E 031°08'0 0.0
2017-Dec-30 10:59N 46°21' E 031°08'0 0.0
2017-Dec-30 10:00N 46°21' E 031°08'0 0.0
2017-Dec-30 08:40N 46°21' E 031°08'0 0.0
2017-Dec-30 07:59N 46°21' E 031°08'0 0.1
2017-Dec-30 06:57N 46°21' E 031°08'0 0.0
2017-Dec-30 06:30N 46°21' E 031°08'0 0.1
2017-Dec-30 05:40N 46°21' E 031°08'0 0.0
2017-Dec-30 04:37N 46°21' E 031°08'0 0.1
2017-Dec-30 04:31N 46°21' E 031°08'0 0.1
2017-Dec-30 03:54N 46°21' E 031°08'0 0.1
2017-Dec-30 03:21N 46°21' E 031°07'0 0.0
2017-Dec-30 03:00N 46°21' E 031°07'0 0.0
2017-Dec-30 01:59N 46°21' E 031°07'0 0.0
2017-Dec-30 01:30N 46°21' E 031°07'0 0.1
2017-Dec-30 01:00N 46°21' E 031°07'0 0.0
2017-Dec-29 23:56N 46°21' E 031°07'0 0.0
2017-Dec-29 22:59N 46°21' E 031°07'0 0.0
2017-Dec-29 19:57N 46°21' E 031°07'0 0.0
2017-Dec-29 18:41N 46°21' E 031°07'0 0.0
2017-Dec-29 17:59N 46°21' E 031°07'0 0.0
2017-Dec-29 17:13N 46°21' E 031°07'0 0.0
2017-Dec-29 16:57N 46°21' E 031°07'0 0.0
2017-Dec-29 15:51N 46°21' E 031°07'0 0.0
2017-Dec-29 15:28N 46°21' E 031°07'0 0.0
2017-Dec-29 14:56N 46°21' E 031°07'  

Dump ship's entire track history